Time,TemperatureF,DewpointF,PressureIn,WindDirection,WindDirectionDegrees,WindSpeedMPH,WindSpeedGustMPH,Humidity,HourlyPrecipIn,Conditions,Clouds,dailyrainin,SolarRadiationWatts/m^2,SoftwareType,DateUTC
2013-03-06 00:22:00,27.0,-7.0,-100.00,WNW,288,4.0,8.0,22,0.00,,,0.00,0.000000,,2013-03-06 07:22:00,
2013-03-06 00:32:00,27.0,-7.0,-100.00,WNW,288,4.0,8.0,22,0.00,,,0.00,0.000000,,2013-03-06 07:32:00,
2013-03-06 00:42:00,27.0,-7.0,-100.00,WNW,288,4.0,8.0,22,0.00,,,0.00,0.000000,,2013-03-06 07:42:00,
2013-03-06 00:52:00,27.0,-7.0,-100.00,WNW,288,4.0,8.0,22,0.00,,,0.00,0.000000,,2013-03-06 07:52:00,
2013-03-06 01:21:00,31.0,-5.0,-100.00,WNW,293,9.0,12.0,20,0.00,,,0.00,0.000000,,2013-03-06 08:21:00,
2013-03-06 01:32:00,31.0,-5.0,-100.00,WNW,293,9.0,12.0,20,0.00,,,0.00,0.000000,,2013-03-06 08:32:00,
2013-03-06 01:42:00,31.0,-5.0,-100.00,WNW,293,9.0,12.0,20,0.00,,,0.00,0.000000,,2013-03-06 08:42:00,
2013-03-06 01:52:00,31.0,-5.0,-100.00,WNW,293,9.0,12.0,20,0.00,,,0.00,0.000000,,2013-03-06 08:52:00,
2013-03-06 02:21:00,24.0,-4.0,-100.00,ESE,107,2.0,12.0,29,0.00,,,0.00,0.000000,,2013-03-06 09:21:00,
2013-03-06 02:32:00,24.0,-4.0,-100.00,ESE,107,2.0,12.0,29,0.00,,,0.00,0.000000,,2013-03-06 09:32:00,
2013-03-06 02:42:00,24.0,-4.0,-100.00,ESE,107,2.0,12.0,29,0.00,,,0.00,0.000000,,2013-03-06 09:42:00,
2013-03-06 02:51:00,24.0,-4.0,-100.00,ESE,107,2.0,12.0,29,0.00,,,0.00,0.000000,,2013-03-06 09:51:00,
2013-03-06 03:22:00,23.0,-4.0,-100.00,NE,44,3.0,6.0,30,0.00,,,0.00,0.000000,,2013-03-06 10:22:00,
2013-03-06 03:32:00,23.0,-4.0,-100.00,NE,44,3.0,6.0,30,0.00,,,0.00,0.000000,,2013-03-06 10:32:00,
2013-03-06 03:42:00,23.0,-4.0,-100.00,NE,44,3.0,6.0,30,0.00,,,0.00,0.000000,,2013-03-06 10:42:00,
2013-03-06 03:51:00,23.0,-4.0,-100.00,NE,44,3.0,6.0,30,0.00,,,0.00,0.000000,,2013-03-06 10:51:00,
2013-03-06 04:22:00,22.0,-3.0,-100.00,North,3,2.0,5.0,32,0.00,,,0.00,0.000000,,2013-03-06 11:22:00,
2013-03-06 04:32:00,22.0,-3.0,-100.00,North,3,2.0,5.0,32,0.00,,,0.00,0.000000,,2013-03-06 11:32:00,
2013-03-06 04:42:00,22.0,-3.0,-100.00,North,3,2.0,5.0,32,0.00,,,0.00,0.000000,,2013-03-06 11:42:00,
2013-03-06 04:52:00,22.0,-3.0,-100.00,North,3,2.0,5.0,32,0.00,,,0.00,0.000000,,2013-03-06 11:52:00,
2013-03-06 05:22:00,22.0,-3.0,-100.00,NE,45,1.0,5.0,33,0.00,,,0.00,0.000000,,2013-03-06 12:22:00,
2013-03-06 05:33:00,22.0,-3.0,-100.00,NE,45,1.0,5.0,33,0.00,,,0.00,0.000000,,2013-03-06 12:33:00,
2013-03-06 05:42:00,22.0,-3.0,-100.00,NE,45,1.0,5.0,33,0.00,,,0.00,0.000000,,2013-03-06 12:42:00,
2013-03-06 05:52:00,22.0,-3.0,-100.00,NE,45,1.0,5.0,33,0.00,,,0.00,0.000000,,2013-03-06 12:52:00,
2013-03-06 06:22:00,20.0,-3.0,-100.00,North,8,1.0,3.0,36,0.00,,,0.00,0.000000,,2013-03-06 13:22:00,
2013-03-06 06:32:00,20.0,-3.0,-100.00,North,8,1.0,3.0,36,0.00,,,0.00,0.000000,,2013-03-06 13:32:00,
2013-03-06 06:42:00,20.0,-3.0,-100.00,North,8,1.0,3.0,36,0.00,,,0.00,0.000000,,2013-03-06 13:42:00,
2013-03-06 06:52:00,20.0,-3.0,-100.00,North,8,1.0,3.0,36,0.00,,,0.00,0.000000,,2013-03-06 13:52:00,
2013-03-06 07:22:00,19.0,-2.0,-100.00,NNE,13,2.0,6.0,39,0.00,,,0.00,7.000000,,2013-03-06 14:22:00,
2013-03-06 07:32:00,19.0,-2.0,-100.00,NNE,13,2.0,6.0,39,0.00,,,0.00,7.000000,,2013-03-06 14:32:00,
2013-03-06 07:42:00,19.0,-2.0,-100.00,NNE,13,2.0,6.0,39,0.00,,,0.00,7.000000,,2013-03-06 14:42:00,
2013-03-06 07:52:00,19.0,-2.0,-100.00,NNE,13,2.0,6.0,39,0.00,,,0.00,7.000000,,2013-03-06 14:52:00,
2013-03-06 08:22:00,28.0,1.0,-100.00,ENE,63,3.0,5.0,30,0.00,,,0.00,114.000000,,2013-03-06 15:22:00,
2013-03-06 08:32:00,28.0,1.0,-100.00,ENE,63,3.0,5.0,30,0.00,,,0.00,114.000000,,2013-03-06 15:32:00,
2013-03-06 08:42:00,28.0,1.0,-100.00,ENE,63,3.0,5.0,30,0.00,,,0.00,114.000000,,2013-03-06 15:42:00,
2013-03-06 08:52:00,28.0,1.0,-100.00,ENE,63,3.0,5.0,30,0.00,,,0.00,114.000000,,2013-03-06 15:52:00,
2013-03-06 09:21:00,34.0,3.0,-100.00,East,95,3.0,6.0,26,0.00,,,0.00,370.000000,,2013-03-06 16:21:00,
2013-03-06 09:32:00,34.0,3.0,-100.00,East,95,3.0,6.0,26,0.00,,,0.00,370.000000,,2013-03-06 16:32:00,
2013-03-06 09:42:00,34.0,3.0,-100.00,East,95,3.0,6.0,26,0.00,,,0.00,370.000000,,2013-03-06 16:42:00,
2013-03-06 09:52:00,34.0,3.0,-100.00,East,95,3.0,6.0,26,0.00,,,0.00,370.000000,,2013-03-06 16:52:00,
2013-03-06 10:22:00,40.0,7.0,-100.00,ESE,104,4.0,7.0,25,0.00,,,0.00,557.000000,,2013-03-06 17:22:00,
2013-03-06 10:32:00,40.0,7.0,-100.00,ESE,104,4.0,7.0,25,0.00,,,0.00,557.000000,,2013-03-06 17:32:00,
2013-03-06 10:42:00,40.0,7.0,-100.00,ESE,104,4.0,7.0,25,0.00,,,0.00,557.000000,,2013-03-06 17:42:00,
2013-03-06 10:52:00,40.0,7.0,-100.00,ESE,104,4.0,7.0,25,0.00,,,0.00,557.000000,,2013-03-06 17:52:00,
2013-03-06 11:28:00,42.0,10.0,-100.00,NE,45,4.0,7.0,27,0.00,,,0.00,698.000000,,2013-03-06 18:28:00,
2013-03-06 11:42:00,42.0,10.0,-100.00,NE,45,4.0,7.0,27,0.00,,,0.00,698.000000,,2013-03-06 18:42:00,
2013-03-06 11:52:00,42.0,10.0,-100.00,NE,45,4.0,7.0,27,0.00,,,0.00,698.000000,,2013-03-06 18:52:00,
2013-03-06 12:22:00,45.0,14.0,-100.00,ESE,107,5.0,13.0,28,0.00,,,0.00,783.000000,,2013-03-06 19:22:00,
2013-03-06 12:32:00,45.0,14.0,-100.00,ESE,107,5.0,13.0,28,0.00,,,0.00,783.000000,,2013-03-06 19:32:00,
2013-03-06 12:43:00,45.0,14.0,-100.00,ESE,107,5.0,13.0,28,0.00,,,0.00,783.000000,,2013-03-06 19:43:00,
2013-03-06 12:52:00,45.0,14.0,-100.00,ESE,107,5.0,13.0,28,0.00,,,0.00,783.000000,,2013-03-06 19:52:00,
2013-03-06 13:22:00,48.0,7.0,-100.00,WNW,291,6.0,14.0,18,0.00,,,0.00,806.000000,,2013-03-06 20:22:00,
2013-03-06 13:32:00,48.0,7.0,-100.00,WNW,291,6.0,14.0,18,0.00,,,0.00,806.000000,,2013-03-06 20:32:00,
2013-03-06 13:42:00,48.0,7.0,-100.00,WNW,291,6.0,14.0,18,0.00,,,0.00,806.000000,,2013-03-06 20:42:00,
2013-03-06 13:52:00,48.0,7.0,-100.00,WNW,291,6.0,14.0,18,0.00,,,0.00,806.000000,,2013-03-06 20:52:00,
2013-03-06 14:22:00,49.0,3.0,-100.00,SW,218,7.0,19.0,15,0.00,,,0.00,766.000000,,2013-03-06 21:22:00,
2013-03-06 14:32:00,49.0,3.0,-100.00,SW,218,7.0,19.0,15,0.00,,,0.00,766.000000,,2013-03-06 21:32:00,
2013-03-06 14:42:00,49.0,3.0,-100.00,SW,218,7.0,19.0,15,0.00,,,0.00,766.000000,,2013-03-06 21:42:00,
2013-03-06 14:51:00,49.0,3.0,-100.00,SW,218,7.0,19.0,15,0.00,,,0.00,766.000000,,2013-03-06 21:51:00,
2013-03-06 15:22:00,47.0,0.0,-100.00,SSW,211,13.0,23.0,14,0.00,,,0.00,623.000000,,2013-03-06 22:22:00,
2013-03-06 15:32:00,47.0,0.0,-100.00,SSW,211,13.0,23.0,14,0.00,,,0.00,623.000000,,2013-03-06 22:32:00,
2013-03-06 15:42:00,47.0,0.0,-100.00,SSW,211,13.0,23.0,14,0.00,,,0.00,623.000000,,2013-03-06 22:42:00,
2013-03-06 15:51:00,47.0,0.0,-100.00,SSW,211,13.0,23.0,14,0.00,,,0.00,623.000000,,2013-03-06 22:51:00,
2013-03-06 16:21:00,47.0,-5.0,-100.00,SW,231,12.0,25.0,11,0.00,,,0.00,427.000000,,2013-03-06 23:21:00,
2013-03-06 16:32:00,47.0,-5.0,-100.00,SW,231,12.0,25.0,11,0.00,,,0.00,427.000000,,2013-03-06 23:32:00,
2013-03-06 16:42:00,47.0,-5.0,-100.00,SW,231,12.0,25.0,11,0.00,,,0.00,427.000000,,2013-03-06 23:42:00,
2013-03-06 16:52:00,47.0,-5.0,-100.00,SW,231,12.0,25.0,11,0.00,,,0.00,427.000000,,2013-03-06 23:52:00,
2013-03-06 17:21:00,44.0,2.0,-100.00,WSW,250,8.0,23.0,17,0.00,,,0.00,227.000000,,2013-03-07 00:21:00,
2013-03-06 17:32:00,44.0,2.0,-100.00,WSW,250,8.0,23.0,17,0.00,,,0.00,227.000000,,2013-03-07 00:32:00,
2013-03-06 17:42:00,44.0,2.0,-100.00,WSW,250,8.0,23.0,17,0.00,,,0.00,227.000000,,2013-03-07 00:42:00,
2013-03-06 17:52:00,44.0,2.0,-100.00,WSW,250,8.0,23.0,17,0.00,,,0.00,227.000000,,2013-03-07 00:52:00,
2013-03-06 18:21:00,40.0,3.0,-100.00,WSW,252,5.0,18.0,21,0.00,,,0.00,65.000000,,2013-03-07 01:21:00,
2013-03-06 18:32:00,40.0,3.0,-100.00,WSW,252,5.0,18.0,21,0.00,,,0.00,65.000000,,2013-03-07 01:32:00,
2013-03-06 18:42:00,40.0,3.0,-100.00,WSW,252,5.0,18.0,21,0.00,,,0.00,65.000000,,2013-03-07 01:42:00,
2013-03-06 18:51:00,40.0,3.0,-100.00,WSW,252,5.0,18.0,21,0.00,,,0.00,65.000000,,2013-03-07 01:51:00,
2013-03-06 19:21:00,36.0,4.0,-100.00,NE,56,2.0,8.0,25,0.00,,,0.00,1.000000,,2013-03-07 02:21:00,
2013-03-06 19:32:00,36.0,4.0,-100.00,NE,56,2.0,8.0,25,0.00,,,0.00,1.000000,,2013-03-07 02:32:00,
2013-03-06 19:41:00,36.0,4.0,-100.00,NE,56,2.0,8.0,25,0.00,,,0.00,1.000000,,2013-03-07 02:41:00,
2013-03-06 19:51:00,36.0,4.0,-100.00,NE,56,2.0,8.0,25,0.00,,,0.00,1.000000,,2013-03-07 02:51:00,
2013-03-06 20:21:00,35.0,5.0,-100.00,SW,230,4.0,9.0,28,0.00,,,0.00,0.000000,,2013-03-07 03:21:00,
2013-03-06 20:32:00,35.0,5.0,-100.00,SW,230,4.0,9.0,28,0.00,,,0.00,0.000000,,2013-03-07 03:32:00,
2013-03-06 20:42:00,35.0,5.0,-100.00,SW,230,4.0,9.0,28,0.00,,,0.00,0.000000,,2013-03-07 03:42:00,
2013-03-06 20:52:00,35.0,5.0,-100.00,SW,230,4.0,9.0,28,0.00,,,0.00,0.000000,,2013-03-07 03:52:00,
2013-03-06 21:22:00,34.0,3.0,-100.00,WNW,296,4.0,12.0,26,0.00,,,0.00,0.000000,,2013-03-07 04:22:00,
2013-03-06 21:32:00,34.0,3.0,-100.00,WNW,296,4.0,12.0,26,0.00,,,0.00,0.000000,,2013-03-07 04:32:00,
2013-03-06 21:42:00,34.0,3.0,-100.00,WNW,296,4.0,12.0,26,0.00,,,0.00,0.000000,,2013-03-07 04:42:00,
2013-03-06 21:51:00,34.0,3.0,-100.00,WNW,296,4.0,12.0,26,0.00,,,0.00,0.000000,,2013-03-07 04:51:00,
2013-03-06 22:22:00,32.0,3.0,-100.00,SW,232,4.0,9.0,29,0.00,,,0.00,0.000000,,2013-03-07 05:22:00,
2013-03-06 22:32:00,32.0,3.0,-100.00,SW,232,4.0,9.0,29,0.00,,,0.00,0.000000,,2013-03-07 05:32:00,
2013-03-06 22:42:00,32.0,3.0,-100.00,SW,232,4.0,9.0,29,0.00,,,0.00,0.000000,,2013-03-07 05:42:00,
2013-03-06 22:52:00,32.0,3.0,-100.00,SW,232,4.0,9.0,29,0.00,,,0.00,0.000000,,2013-03-07 05:52:00,
2013-03-06 23:21:00,30.0,5.0,-100.00,WSW,258,2.0,9.0,34,0.00,,,0.00,0.000000,,2013-03-07 06:21:00,
2013-03-06 23:32:00,30.0,5.0,-100.00,WSW,258,2.0,9.0,34,0.00,,,0.00,0.000000,,2013-03-07 06:32:00,
2013-03-06 23:42:00,30.0,5.0,-100.00,WSW,258,2.0,9.0,34,0.00,,,0.00,0.000000,,2013-03-07 06:42:00,
2013-03-06 23:51:00,30.0,5.0,-100.00,WSW,258,2.0,9.0,34,0.00,,,0.00,0.000000,,2013-03-07 06:51:00,